Huvudsida
METAR-TAF:

METAR-TAF

Flygplatser :

Bahrains internationella flygplats

Bahrain, Bahrain

latitud: 26-16N, longitud: 050-39E, höjd: 2 m

Aktuellt väderrapport

Denna rapport gjordes för 12 minuter sedan, klockan 08:00 UTC
Vind 7 kt från nord, varierande mellan nord/nordväst och ost/nordost
Temperatur 36°C
Fuktighet 35%
Tryck 1007 hPa
Sikt 10 km eller mer
Inga moln under 1 500 m eller inga cumulonimbus

METAR: OBBI 270800Z 01007KT 330V060 CAVOK 36/18 Q1007 NOSIG

Tid: 11:12 (08:12 UTC)

Väderprognos

Denna rapport gjordes för 3 timmar och 12 minuter sedan, klockan 05:00 UTC
Prognos gäller från 27 kl. 06 UTC till 28 kl. 12 UTC
Vind 8 kt från nord
Sikt 10 km eller mer
Inga moln under 1 500 m eller inga cumulonimbus

TAF: OBBI 270500Z 2706/2812 36008KT CAVOK

Aktuella väderrapporter och prognoser från 4000 flygplatser (METAR- och TAF-rapporter).

De tillgängliga stationerna syns som gula och röda prickar på kartan.

För musen över prickarna för att se namnen på stationerna.

Klicka sedan för att få väderrapporter och prognoser.

För att ändra kartan: Klicka på de gröna knapparna med ett svart kors på för att zooma in; den gröna knappen med ett streck på för att zooma ut; eller på de gröna pilarna för angränsande kartor.


METAR-TAF: